Time;durP1;ratioP1;P1;durP2;ratioP2;P2;SDS_P1;SDS_P2;PMS_P1;PMS_P2;Temp;Humidity;BMP_temperature;BMP_pressure;BME280_temperature;BME280_humidity;BME280_pressure;Samples;Min_cycle;Max_cycle;Signal;HPM_P1;HPM_P2
2021/01/18 00:00:15;;;;;;;30.92;13.48;;;;;;;-5.64;66.65;101424.63;1721131;83;25660;-52
2021/01/18 00:02:45;;;;;;;34.85;14.18;;;;;;;-5.57;66.75;101424.98;1720913;83;27439;-53
2021/01/18 00:05:13;;;;;;;35.60;14.20;;;;;;;-5.50;66.81;101418.36;1720962;83;25663;-52
2021/01/18 00:07:53;;;;;;;31.10;14.95;;;;;;;-5.41;66.81;101423.92;1726983;81;25743;-52
2021/01/18 00:10:24;;;;;;;31.73;16.95;;;;;;;-5.37;66.61;101423.02;1750869;81;25700;-53
2021/01/18 00:12:54;;;;;;;37.25;14.98;;;;;;;-5.29;66.81;101426.87;1751007;81;25670;-52
2021/01/18 00:15:24;;;;;;;35.73;15.20;;;;;;;-5.23;66.63;101426.78;1750962;81;27523;-53
2021/01/18 00:17:53;;;;;;;28.90;14.87;;;;;;;-5.17;66.66;101424.53;1750926;81;26148;-52
2021/01/18 00:20:25;;;;;;;31.25;14.90;;;;;;;-5.17;66.33;101425.84;1750975;81;25699;-53
2021/01/18 00:22:53;;;;;;;32.15;14.65;;;;;;;-5.16;66.25;101418.82;1750956;81;26445;-53
2021/01/18 00:25:23;;;;;;;33.60;14.58;;;;;;;-5.15;66.37;101418.80;1751045;81;26277;-53
2021/01/18 00:27:52;;;;;;;32.45;15.25;;;;;;;-5.10;66.00;101427.48;1750931;81;28503;-53
2021/01/18 00:30:24;;;;;;;30.72;14.43;;;;;;;-5.10;66.15;101422.66;1750950;81;26465;-53
2021/01/18 00:32:53;;;;;;;39.55;16.27;;;;;;;-5.10;65.97;101422.24;1750747;81;25444;-52
2021/01/18 00:35:27;;;;;;;32.15;15.65;;;;;;;-5.14;65.56;101422.30;1749766;81;25680;-51
2021/01/18 00:37:55;;;;;;;33.15;16.07;;;;;;;-5.24;65.70;101420.22;1760881;81;25748;-53
2021/01/18 00:40:25;;;;;;;45.75;18.90;;;;;;;-5.22;66.05;101419.34;1749026;81;27515;-53
2021/01/18 00:42:54;;;;;;;36.58;16.82;;;;;;;-5.21;65.91;101417.14;1791879;80;25654;-52
2021/01/18 00:45:26;;;;;;;36.10;16.35;;;;;;;-5.20;65.99;101415.38;1787458;79;26233;-53
2021/01/18 00:47:56;;;;;;;36.77;16.65;;;;;;;-5.17;66.24;101423.64;1777720;80;25643;-52
2021/01/18 00:50:28;;;;;;;37.73;16.97;;;;;;;-5.21;65.96;101426.75;1777869;80;25677;-52
2021/01/18 00:53:00;;;;;;;33.00;14.95;;;;;;;-5.26;65.98;101428.12;1777781;80;27582;-53
2021/01/18 00:55:29;;;;;;;38.88;16.37;;;;;;;-5.36;65.78;101427.38;1755938;80;25720;-52
2021/01/18 00:58:13;;;;;;;27.48;13.83;;;;;;;-5.48;65.27;101434.52;1833187;78;25569;-52
2021/01/18 01:00:44;;;;;;;35.48;14.90;;;;;;;-5.66;65.75;101445.17;1804929;79;25689;-53
2021/01/18 01:03:13;;;;;;;38.95;15.28;;;;;;;-5.79;65.76;101442.27;1805629;79;27510;-52
2021/01/18 01:05:41;;;;;;;32.23;14.60;;;;;;;-5.87;66.06;101431.84;1805509;79;26111;-53
2021/01/18 01:08:10;;;;;;;34.67;16.52;;;;;;;-5.97;66.18;101429.77;1805599;79;25741;-53
2021/01/18 01:10:38;;;;;;;35.28;16.00;;;;;;;-6.07;66.18;101433.39;1805594;79;26300;-52
2021/01/18 01:13:09;;;;;;;33.28;14.85;;;;;;;-6.15;66.24;101440.45;1805601;79;25663;-53
2021/01/18 01:15:37;;;;;;;35.75;17.62;;;;;;;-6.16;66.66;101443.48;1805649;79;27576;-52
2021/01/18 01:18:05;;;;;;;34.78;14.60;;;;;;;-6.18;66.69;101440.46;1805618;79;25649;-53
2021/01/18 01:20:33;;;;;;;45.80;19.07;;;;;;;-6.17;66.93;101435.20;1805440;79;25685;-53
2021/01/18 01:23:02;;;;;;;35.03;16.35;;;;;;;-6.16;67.31;101443.48;1805523;79;25649;-50
2021/01/18 01:25:35;;;;;;;43.85;17.57;;;;;;;-6.10;67.32;101438.64;1805698;79;25693;-53
2021/01/18 01:28:04;;;;;;;25.62;10.10;;;;;;;-6.05;67.52;101440.77;1805679;79;27596;-53
2021/01/18 01:30:33;;;;;;;31.50;15.18;;;;;;;-6.04;68.75;101434.65;1805301;79;26249;-50
2021/01/18 01:33:02;;;;;;;33.70;14.85;;;;;;;-6.17;68.32;101436.97;1805550;79;25724;-54
2021/01/18 01:35:31;;;;;;;36.95;16.67;;;;;;;-6.29;68.42;101437.48;1776001;79;25640;-54
2021/01/18 01:38:00;;;;;;;28.35;12.70;;;;;;;-6.36;68.68;101442.77;1755047;81;25628;-52
2021/01/18 01:40:28;;;;;;;32.33;13.75;;;;;;;-6.44;69.20;101441.54;1762396;80;27595;-54
2021/01/18 01:43:00;;;;;;;37.50;16.95;;;;;;;-6.52;68.78;101451.20;1782331;79;25592;-53
2021/01/18 01:45:29;;;;;;;41.05;15.65;;;;;;;-6.56;68.86;101448.16;1803812;79;25257;-53
2021/01/18 01:48:00;;;;;;;34.95;15.00;;;;;;;-6.54;68.95;101450.33;1735412;82;25678;-52
2021/01/18 01:50:36;;;;;;;33.98;13.95;;;;;;;-6.56;68.74;101444.23;1735397;82;25701;-53
2021/01/18 01:53:21;;;;;;;42.27;16.93;;;;;;;-6.59;68.77;101440.34;1735336;82;27534;-52
2021/01/18 01:55:52;;;;;;;38.83;15.65;;;;;;;-6.59;68.74;101446.89;1735115;82;25902;-54
2021/01/18 01:58:26;;;;;;;36.05;15.38;;;;;;;-6.58;68.71;101449.48;1706500;83;25876;-54
2021/01/18 02:00:58;;;;;;;35.88;15.15;;;;;;;-6.59;68.52;101442.97;1763197;81;25684;-53
2021/01/18 02:03:45;;;;;;;28.90;12.43;;;;;;;-6.59;68.39;101437.73;1763110;81;25613;-54
2021/01/18 02:06:14;;;;;;;30.72;13.68;;;;;;;-6.57;68.44;101440.76;1762439;81;26069;-53
2021/01/18 02:08:43;;;;;;;30.27;15.53;;;;;;;-6.64;68.37;101438.61;1767871;79;25690;-52
2021/01/18 02:11:14;;;;;;;38.65;16.52;;;;;;;-6.66;68.33;101441.67;1768120;79;25655;-55
2021/01/18 02:14:14;;;;;;;38.00;16.45;;;;;;;-6.62;68.47;101443.83;1793441;79;25660;-53
2021/01/18 02:16:48;;;;;;;35.98;15.20;;;;;;;-6.59;68.55;101440.34;1793381;79;25437;-54
2021/01/18 02:19:48;;;;;;;41.83;16.45;;;;;;;-6.49;68.67;101440.69;1772786;79;27513;-53
2021/01/18 02:22:56;;;;;;;38.40;16.52;;;;;;;-6.42;68.59;101447.64;1773078;79;25671;-52
2021/01/18 02:25:35;;;;;;;42.40;17.75;;;;;;;-6.38;68.26;101445.41;1796695;78;25614;-54
2021/01/18 02:28:28;;;;;;;42.40;18.67;;;;;;;-6.32;68.45;101444.05;1795040;78;25639;-53
2021/01/18 02:31:35;;;;;;;40.30;17.27;;;;;;;-6.38;67.69;101444.56;1762640;81;25723;-53
2021/01/18 02:34:53;;;;;;;36.30;16.42;;;;;;;-6.43;67.50;101448.52;1782286;79;27595;-53
2021/01/18 02:37:30;;;;;;;39.73;18.03;;;;;;;-6.59;67.24;101443.82;1794131;79;25685;-54
2021/01/18 02:40:15;;;;;;;35.85;16.10;;;;;;;-6.76;66.92;101442.61;1793619;79;26268;-53
2021/01/18 02:42:51;;;;;;;46.65;18.62;;;;;;;-6.85;67.38;101449.20;1724397;83;26135;-53
2021/01/18 02:45:23;;;;;;;39.73;17.25;;;;;;;-6.96;67.79;101453.19;1748080;81;25650;-53
2021/01/18 02:47:51;;;;;;;40.03;17.65;;;;;;;-7.04;67.95;101453.25;1741130;82;27527;-54
2021/01/18 02:50:21;;;;;;;43.78;19.10;;;;;;;-7.09;68.14;101457.61;1771632;80;26143;-52
2021/01/18 02:52:51;;;;;;;41.45;20.27;;;;;;;-7.06;68.45;101462.84;1771757;80;25708;-55
2021/01/18 02:55:20;;;;;;;41.88;17.98;;;;;;;-6.98;68.46;101457.13;1696740;84;25741;-55
2021/01/18 02:57:52;;;;;;;43.17;18.45;;;;;;;-6.92;68.40;101457.55;1733216;82;25743;-54
2021/01/18 03:00:34;;;;;;;40.48;17.12;;;;;;;-6.81;68.50;101467.94;1721003;83;27546;-54
2021/01/18 03:03:34;;;;;;;41.73;17.30;;;;;;;-6.80;68.24;101461.83;1717462;83;25718;-51
2021/01/18 03:06:28;;;;;;;44.75;21.48;;;;;;;-6.80;68.22;101459.22;1719985;83;32874;-55
2021/01/18 03:09:04;;;;;;;36.13;16.57;;;;;;;-6.83;68.15;101457.91;1705735;83;25863;-53
2021/01/18 03:11:40;;;;;;;37.67;16.85;;;;;;;-6.88;68.15;101457.94;1721031;83;25732;-53
2021/01/18 03:14:13;;;;;;;43.80;18.15;;;;;;;-6.92;68.24;101459.70;1720929;83;27532;-52
2021/01/18 03:16:46;;;;;;;44.35;16.48;;;;;;;-6.98;68.39;101460.16;1720895;83;25701;-54
2021/01/18 03:19:17;;;;;;;35.67;17.63;;;;;;;-6.96;68.28;101458.00;1721308;83;25657;-51
2021/01/18 03:21:46;;;;;;;38.45;16.67;;;;;;;-6.96;68.28;101458.00;1721043;83;26250;-53
2021/01/18 03:24:24;;;;;;;41.85;15.08;;;;;;;-6.92;68.36;101463.63;1721054;83;25592;-54
2021/01/18 03:26:52;;;;;;;40.05;15.88;;;;;;;-6.96;68.26;101460.61;1721077;83;28459;-52
2021/01/18 03:29:20;;;;;;;36.93;16.10;;;;;;;-6.98;68.31;101458.44;1720983;83;25981;-53
2021/01/18 03:31:50;;;;;;;35.65;16.15;;;;;;;-7.01;68.39;101454.52;1721005;83;25408;-51
2021/01/18 03:34:18;;;;;;;39.18;18.15;;;;;;;-7.03;68.24;101460.19;1750668;81;25683;-54
2021/01/18 03:36:54;;;;;;;46.48;20.30;;;;;;;-7.00;68.46;101460.19;1750825;81;25751;-53
2021/01/18 03:39:22;;;;;;;40.55;17.62;;;;;;;-6.96;68.39;101457.11;1750914;81;27273;-54
2021/01/18 03:41:50;;;;;;;43.80;18.87;;;;;;;-6.94;68.43;101467.14;1750845;81;25651;-53
2021/01/18 03:44:19;;;;;;;39.35;16.45;;;;;;;-6.98;68.25;101463.67;1749485;81;25763;-54
2021/01/18 03:46:50;;;;;;;42.62;16.60;;;;;;;-6.94;68.52;101464.06;1737788;82;25647;-53
2021/01/18 03:49:18;;;;;;;40.65;19.23;;;;;;;-6.88;68.48;101468.41;1749215;81;25722;-52
2021/01/18 03:51:47;;;;;;;37.35;16.25;;;;;;;-6.83;68.55;101463.14;1739221;82;27615;-52
2021/01/18 03:54:16;;;;;;;42.80;20.48;;;;;;;-6.78;68.37;101475.78;1720749;83;25571;-53
2021/01/18 03:56:44;;;;;;;38.73;17.52;;;;;;;-6.76;68.15;101477.51;1724082;81;25774;-52
2021/01/18 03:59:15;;;;;;;39.05;16.37;;;;;;;-6.73;67.99;101472.69;1734970;81;25628;-53
2021/01/18 04:01:43;;;;;;;38.63;16.10;;;;;;;-6.75;67.83;101475.75;1735031;82;26150;-54
2021/01/18 04:04:12;;;;;;;37.25;16.42;;;;;;;-6.77;67.67;101468.37;1734991;82;27407;-51
2021/01/18 04:06:40;;;;;;;33.55;14.70;;;;;;;-6.76;67.61;101473.58;1793767;79;25434;-54
2021/01/18 04:09:08;;;;;;;26.40;11.53;;;;;;;-6.81;66.94;101468.80;1793900;79;25664;-49
2021/01/18 04:11:37;;;;;;;36.45;14.70;;;;;;;-6.82;67.00;101481.48;1793832;79;25715;-50
2021/01/18 04:14:05;;;;;;;33.70;14.18;;;;;;;-6.86;66.76;101481.50;1793675;79;25753;-53
2021/01/18 04:16:43;;;;;;;25.50;10.25;;;;;;;-6.87;66.63;101491.08;1793859;79;27532;-53
2021/01/18 04:19:13;;;;;;;28.30;11.08;;;;;;;-6.92;66.56;101496.33;1793543;79;25662;-50
2021/01/18 04:21:41;;;;;;;24.92;9.80;;;;;;;-7.03;66.07;101502.03;1793838;79;25569;-53
2021/01/18 04:24:10;;;;;;;24.40;11.35;;;;;;;-7.07;65.00;101489.86;1793900;79;25672;-52
2021/01/18 04:26:39;;;;;;;21.60;9.50;;;;;;;-7.17;63.35;101506.45;1793898;79;25481;-50
2021/01/18 04:29:07;;;;;;;19.95;8.58;;;;;;;-7.29;63.66;101503.00;1793690;79;27523;-52
2021/01/18 04:31:40;;;;;;;25.70;11.10;;;;;;;-7.30;64.01;101513.02;1793812;79;26061;-52
2021/01/18 04:34:11;;;;;;;25.17;10.90;;;;;;;-7.34;63.42;101516.53;1793467;79;25659;-53
2021/01/18 04:36:40;;;;;;;27.02;11.03;;;;;;;-7.38;63.78;101513.48;1762362;81;25687;-53
2021/01/18 04:39:09;;;;;;;25.72;10.70;;;;;;;-7.38;64.02;101520.02;1762480;81;25648;-52
2021/01/18 04:41:45;;;;;;;27.05;11.73;;;;;;;-7.39;64.25;101519.16;1789003;80;27531;-52
2021/01/18 04:44:17;;;;;;;25.85;12.25;;;;;;;-7.35;64.22;101521.78;1792034;80;25728;-51
2021/01/18 04:46:47;;;;;;;24.63;10.78;;;;;;;-7.32;64.43;101523.94;1724269;83;25759;-51
2021/01/18 04:49:16;;;;;;;20.62;8.98;;;;;;;-7.28;64.38;101531.34;1733470;82;25704;-52
2021/01/18 04:51:53;;;;;;;28.42;12.47;;;;;;;-7.31;63.85;101529.61;1725388;83;26193;-51
2021/01/18 04:54:24;;;;;;;26.00;9.68;;;;;;;-7.33;63.88;101533.96;1705665;84;27534;-54
2021/01/18 04:57:10;;;;;;;21.75;8.33;;;;;;;-7.33;63.20;101542.22;1762295;80;25726;-53
2021/01/18 04:59:46;;;;;;;26.80;11.53;;;;;;;-7.39;62.90;101550.95;1764055;80;25734;-51
2021/01/18 05:02:24;;;;;;;25.88;10.60;;;;;;;-7.42;63.30;101553.59;1762461;81;26172;-53
2021/01/18 05:04:54;;;;;;;21.82;10.00;;;;;;;-7.48;62.23;101554.45;1762098;81;25680;-53
2021/01/18 05:07:53;;;;;;;25.90;11.63;;;;;;;-7.59;62.73;101561.43;1762225;81;28894;-53
2021/01/18 05:10:26;;;;;;;27.42;12.00;;;;;;;-7.61;63.27;101558.83;1760625;81;26565;-54
2021/01/18 05:13:01;;;;;;;28.00;12.50;;;;;;;-7.60;63.55;101564.91;1762571;81;25569;-51
2021/01/18 05:15:29;;;;;;;35.73;13.50;;;;;;;-7.64;62.89;101557.52;1762390;81;26313;-54
2021/01/18 05:18:02;;;;;;;22.37;9.83;;;;;;;-7.75;63.04;101562.75;1762420;81;25668;-56
2021/01/18 05:20:30;;;;;;;27.40;12.07;;;;;;;-7.86;63.58;101567.98;1710535;83;27552;-54
2021/01/18 05:22:58;;;;;;;24.15;8.25;;;;;;;-7.94;63.42;101572.33;1696700;84;25758;-53
2021/01/18 05:25:26;;;;;;;26.95;11.03;;;;;;;-8.03;63.36;101572.33;1746270;81;25621;-53
2021/01/18 05:28:08;;;;;;;32.25;13.22;;;;;;;-8.10;63.41;101577.08;1799744;79;26405;-53
2021/01/18 05:30:42;;;;;;;26.93;13.22;;;;;;;-8.15;63.29;101578.38;1799705;79;25675;-54
2021/01/18 05:33:16;;;;;;;25.08;11.00;;;;;;;-8.22;63.25;101586.65;1799641;79;26992;-52
2021/01/18 05:35:50;;;;;;;24.43;10.75;;;;;;;-8.25;63.31;101583.16;1799698;79;25953;-52
2021/01/18 05:38:18;;;;;;;;;;;;;;;-8.27;63.29;101580.53;1802187;79;25714;-52
2021/01/18 05:40:51;;;;;;;27.45;10.15;;;;;;;-8.28;63.54;101587.92;1796599;79;25559;-54
2021/01/18 05:43:20;;;;;;;19.52;8.70;;;;;;;-8.29;63.26;101587.47;1793163;79;26225;-52
2021/01/18 05:45:48;;;;;;;22.50;10.55;;;;;;;-8.29;63.17;101592.70;1724423;83;27719;-52
2021/01/18 05:48:28;;;;;;;24.70;9.63;;;;;;;-8.34;63.02;101599.20;1724386;82;26224;-52
2021/01/18 05:51:02;;;;;;;28.52;11.03;;;;;;;-8.39;63.36;101598.78;1727646;81;25602;-53
2021/01/18 05:53:32;;;;;;;28.40;12.10;;;;;;;-8.37;63.82;101601.83;1705732;84;25683;-50
2021/01/18 05:56:19;;;;;;;26.77;11.30;;;;;;;-8.31;63.96;101614.03;1705685;84;25739;-53
2021/01/18 05:58:48;;;;;;;24.77;10.58;;;;;;;-8.33;63.82;101613.14;1743428;80;27525;-54
2021/01/18 06:01:39;;;;;;;27.00;11.88;;;;;;;-8.33;63.89;101609.23;1741160;82;26200;-55
2021/01/18 06:04:17;;;;;;;26.33;11.65;;;;;;;-8.28;63.90;101617.08;1741187;82;25797;-52
2021/01/18 06:06:56;;;;;;;19.55;9.55;;;;;;;-8.25;63.86;101619.26;1741156;82;25725;-53
2021/01/18 06:09:47;;;;;;;24.92;10.80;;;;;;;-8.17;63.62;101624.06;1805169;77;25680;-52
2021/01/18 06:12:27;;;;;;;27.90;12.10;;;;;;;-8.19;63.62;101624.48;1798005;79;25783;-54
2021/01/18 06:15:15;;;;;;;23.42;9.50;;;;;;;-8.13;63.68;101630.61;1797984;79;27513;-53
2021/01/18 06:17:52;;;;;;;28.40;12.93;;;;;;;-8.11;63.44;101629.73;1797815;79;26138;-50
2021/01/18 06:20:27;;;;;;;29.12;12.65;;;;;;;-8.09;63.68;101631.04;1797507;79;25422;-52
2021/01/18 06:22:59;;;;;;;27.70;12.47;;;;;;;-8.07;63.58;101631.47;1797870;79;26197;-52
2021/01/18 06:25:37;;;;;;;32.35;12.95;;;;;;;-8.03;63.58;101642.38;1815114;77;25686;-53
2021/01/18 06:28:30;;;;;;;24.65;12.23;;;;;;;-8.04;63.54;101641.94;1842342;77;28593;-53
2021/01/18 06:31:10;;;;;;;28.27;12.50;;;;;;;-8.07;63.31;101639.31;1842164;77;25525;-51
2021/01/18 06:33:50;;;;;;;27.77;12.88;;;;;;;-8.13;63.27;101640.61;1842325;77;25467;-51
2021/01/18 06:36:24;;;;;;;28.83;13.68;;;;;;;-8.13;63.63;101636.69;1842157;77;26212;-53
2021/01/18 06:39:05;;;;;;;25.17;11.08;;;;;;;-8.04;64.08;101631.94;1842213;77;25701;-51
2021/01/18 06:41:37;;;;;;;32.45;12.28;;;;;;;-8.03;63.00;101646.75;1809367;77;27523;-51
2021/01/18 06:44:07;;;;;;;28.38;12.28;;;;;;;-8.05;62.84;101646.72;1737497;81;25700;-53
2021/01/18 06:46:37;;;;;;;37.25;13.40;;;;;;;-8.10;62.42;101647.57;1777427;80;25737;-53
2021/01/18 06:49:07;;;;;;;29.55;11.25;;;;;;;-8.18;62.30;101652.80;1727019;81;25669;-53
2021/01/18 06:51:38;;;;;;;28.30;11.97;;;;;;;-8.17;62.24;101660.62;1726940;83;25674;-52
2021/01/18 06:54:11;;;;;;;32.50;12.90;;;;;;;-8.21;61.57;101660.60;1726190;83;27523;-51
2021/01/18 06:57:08;;;;;;;27.70;12.82;;;;;;;-8.22;61.93;101662.36;1726854;83;25752;-54
2021/01/18 06:59:52;;;;;;;24.43;10.55;;;;;;;-8.14;62.16;101656.28;1726385;83;25579;-54
2021/01/18 07:02:27;;;;;;;69.50;28.62;;;;;;;-8.05;62.36;101653.25;1726960;83;25716;-54
2021/01/18 07:05:06;;;;;;;38.60;13.32;;;;;;;-7.95;62.34;101660.69;1727092;83;25664;-54
2021/01/18 07:07:37;;;;;;;34.38;11.85;;;;;;;-7.83;62.42;101662.45;1733265;81;28493;-55
2021/01/18 07:10:09;;;;;;;29.57;10.88;;;;;;;-7.77;61.59;101662.91;1741204;81;25774;-54
2021/01/18 07:12:38;;;;;;;33.70;13.60;;;;;;;-7.75;60.94;101670.28;1722268;81;25648;-52
2021/01/18 07:15:10;;;;;;;35.68;14.00;;;;;;;-7.77;61.46;101675.97;1721802;81;26202;-55
2021/01/18 07:17:51;;;;;;;34.43;13.35;;;;;;;-7.64;61.75;101675.09;1721688;81;25641;-55
2021/01/18 07:20:26;;;;;;;29.85;13.25;;;;;;;-7.52;61.78;101682.52;1741128;81;27528;-51
2021/01/18 07:23:21;;;;;;;31.23;14.13;;;;;;;-7.41;61.80;101678.19;1745420;81;25739;-52
2021/01/18 07:25:53;;;;;;;36.85;14.75;;;;;;;-7.32;61.32;101679.50;1748683;81;25663;-53
2021/01/18 07:28:21;;;;;;;35.55;14.07;;;;;;;-7.25;61.55;101680.34;1750041;81;25714;-54
2021/01/18 07:30:50;;;;;;;35.00;15.10;;;;;;;-7.11;61.82;101673.80;1748739;81;25461;-54
2021/01/18 07:33:19;;;;;;;34.43;13.03;;;;;;;-7.05;61.29;101681.66;1752289;80;26789;-54
2021/01/18 07:35:48;;;;;;;31.05;13.32;;;;;;;-7.00;60.56;101681.21;1740096;81;25768;-54
2021/01/18 07:38:21;;;;;;;30.00;13.10;;;;;;;-6.98;59.93;101683.81;1733995;81;25641;-53
2021/01/18 07:41:10;;;;;;;39.23;13.45;;;;;;;-6.98;60.40;101696.89;1736322;81;25513;-54
2021/01/18 07:43:48;;;;;;;28.10;13.30;;;;;;;-6.92;60.85;101689.92;1750216;81;25726;-53
2021/01/18 07:46:29;;;;;;;40.83;15.10;;;;;;;-6.88;59.63;101697.77;1744333;81;28429;-54
2021/01/18 07:49:15;;;;;;;36.15;14.20;;;;;;;-6.84;60.65;101691.22;1720937;83;26120;-51
2021/01/18 07:51:43;;;;;;;39.13;14.30;;;;;;;-6.69;60.45;101699.91;1714596;81;25649;-53
2021/01/18 07:54:32;;;;;;;36.15;14.20;;;;;;;-6.62;59.95;101688.55;1721026;83;25520;-53
2021/01/18 07:57:34;;;;;;;39.60;15.00;;;;;;;-6.64;57.04;101686.39;1664916;85;25715;-52
2021/01/18 08:00:23;;;;;;;30.48;13.20;;;;;;;-6.70;58.08;101692.52;1718492;83;28454;-54
2021/01/18 08:03:12;;;;;;;32.28;12.95;;;;;;;-6.71;57.31;101683.33;1720952;83;25743;-51
2021/01/18 08:05:42;;;;;;;34.00;13.40;;;;;;;-6.78;56.80;101685.97;1720808;83;25775;-54
2021/01/18 08:08:15;;;;;;;35.48;14.35;;;;;;;-6.92;56.48;101694.30;1719468;82;25670;-54
2021/01/18 08:11:07;;;;;;;31.00;13.62;;;;;;;-6.89;57.47;101685.56;1710631;82;25630;-53
2021/01/18 08:13:58;;;;;;;38.73;15.65;;;;;;;-6.81;56.91;101700.81;1727872;80;27528;-53
2021/01/18 08:16:42;;;;;;;33.98;13.83;;;;;;;-6.84;56.59;101697.77;1725718;82;25605;-51
2021/01/18 08:19:26;;;;;;;35.05;13.58;;;;;;;-6.77;57.42;101696.88;1718552;82;25687;-54
2021/01/18 08:22:01;;;;;;;;;;;;;;;-6.70;56.65;101706.02;1715429;82;25800;-52
2021/01/18 08:24:33;;;;;;;;;;;;;;;-6.68;56.30;101703.82;1722621;82;26110;-54
2021/01/18 08:27:08;;;;;;;24.72;10.53;;;;;;;-6.72;55.36;101692.94;1737196;82;28471;-54
2021/01/18 08:29:52;;;;;;;32.15;13.43;;;;;;;-6.75;54.55;101698.17;1739993;82;25671;-54
2021/01/18 08:32:35;;;;;;;36.50;13.83;;;;;;;-6.82;54.98;101702.98;1713509;82;25692;-53
2021/01/18 08:35:27;;;;;;;31.00;14.03;;;;;;;-6.77;56.08;101696.88;1712139;82;26287;-52
2021/01/18 08:37:59;;;;;;;31.93;12.25;;;;;;;-6.67;55.62;101698.17;1710737;83;25705;-53
2021/01/18 08:40:49;;;;;;;37.30;14.73;;;;;;;-6.69;55.29;101703.41;1720915;82;27486;-55
2021/01/18 08:43:20;;;;;;;31.45;12.43;;;;;;;-6.71;53.67;101706.47;1714606;81;25716;-55
2021/01/18 08:45:54;;;;;;;35.28;12.20;;;;;;;-6.77;54.47;101702.11;1710771;82;25685;-55
2021/01/18 08:48:30;;;;;;;33.92;14.35;;;;;;;-6.74;54.88;101697.75;1710878;83;25752;-54
2021/01/18 08:51:02;;;;;;;38.20;16.25;;;;;;;-6.71;54.89;101691.18;1709114;83;26102;-52
2021/01/18 08:53:45;;;;;;;34.48;14.78;;;;;;;-6.68;54.36;101690.73;1718775;81;32648;-54
2021/01/18 08:56:34;;;;;;;39.50;14.10;;;;;;;-6.64;55.10;101692.94;1705555;84;26196;-54
2021/01/18 08:59:15;;;;;;;37.28;14.18;;;;;;;-6.56;54.42;101694.20;1762456;81;25753;-54
2021/01/18 09:01:51;;;;;;;36.75;14.10;;;;;;;-6.55;53.58;101697.26;1789001;79;25505;-53
2021/01/18 09:04:24;;;;;;;32.30;13.15;;;;;;;-6.59;54.04;101696.41;1792212;79;25719;-55
2021/01/18 09:07:00;;;;;;;36.15;14.00;;;;;;;-6.54;53.86;101695.08;1793735;79;28380;-55
2021/01/18 09:09:41;;;;;;;37.75;14.25;;;;;;;-6.55;54.68;101692.03;1794231;79;26205;-54
2021/01/18 09:12:16;;;;;;;37.93;14.83;;;;;;;-6.58;53.80;101694.22;1781755;79;25711;-53
2021/01/18 09:14:54;;;;;;;36.63;14.60;;;;;;;-6.58;53.64;101685.48;1782576;79;25663;-54
2021/01/18 09:17:28;;;;;;;36.75;14.90;;;;;;;-6.65;53.70;101682.89;1763936;79;26167;-54
2021/01/18 09:20:05;;;;;;;36.90;15.72;;;;;;;-6.68;53.12;101685.95;1776606;79;28581;-53
2021/01/18 09:23:00;;;;;;;33.38;12.70;;;;;;;-6.79;53.08;101689.45;1774600;79;25750;-54
2021/01/18 09:25:35;;;;;;;38.33;15.10;;;;;;;-6.81;52.80;101679.42;1767255;79;25749;-53
2021/01/18 09:28:12;;;;;;;45.85;16.82;;;;;;;-6.76;52.77;101684.23;1773984;79;25704;-51
2021/01/18 09:30:44;;;;;;;37.10;13.65;;;;;;;-6.66;53.50;101679.83;1777873;79;25540;-53
2021/01/18 09:33:13;;;;;;;48.38;17.98;;;;;;;-6.51;53.06;101677.61;1768720;81;27512;-53
2021/01/18 09:35:44;;;;;;;32.55;13.15;;;;;;;-6.48;52.97;101692.02;1768522;80;25677;-54
2021/01/18 09:38:14;;;;;;;37.88;15.03;;;;;;;-6.47;51.84;101664.07;1775658;79;26390;-54
2021/01/18 09:40:44;;;;;;;43.48;15.55;;;;;;;-6.55;52.46;101683.75;1786551;79;26120;-54
2021/01/18 09:43:18;;;;;;;31.90;15.15;;;;;;;-6.66;51.82;101684.21;1782151;78;26321;-53
2021/01/18 09:45:55;;;;;;;40.38;15.80;;;;;;;-6.68;51.95;101684.19;1768944;79;28517;-53
2021/01/18 09:48:27;;;;;;;29.55;14.07;;;;;;;-6.74;51.15;101681.59;1783600;79;26081;-53
2021/01/18 09:51:07;;;;;;;35.78;14.80;;;;;;;-6.74;51.04;101676.81;1768744;81;25490;-54
2021/01/18 09:53:36;;;;;;;31.90;12.82;;;;;;;-6.71;51.52;101664.59;1768923;79;25443;-51
2021/01/18 09:56:15;;;;;;;40.08;16.45;;;;;;;-6.62;51.77;101672.84;1767065;79;26553;-51
2021/01/18 09:58:54;;;;;;;33.30;14.87;;;;;;;-6.52;50.99;101677.18;1777359;79;26827;-53
2021/01/18 10:01:33;;;;;;;30.05;12.50;;;;;;;-6.43;50.96;101662.31;1799938;79;26055;-54
2021/01/18 10:04:00;;;;;;;36.63;13.50;;;;;;;-6.45;50.80;101674.11;1797292;79;25666;-53
2021/01/18 10:06:33;;;;;;;39.80;16.20;;;;;;;-6.36;51.21;101680.63;1799899;78;25952;-55
2021/01/18 10:09:10;;;;;;;34.58;14.15;;;;;;;-6.26;51.25;101684.06;1806136;78;26230;-53
2021/01/18 10:11:49;;;;;;;39.83;14.75;;;;;;;-6.24;49.99;101670.53;1753973;81;27521;-52
2021/01/18 10:14:27;;;;;;;34.30;15.70;;;;;;;-6.20;49.50;101679.24;1784971;80;25669;-54
2021/01/18 10:17:09;;;;;;;39.78;13.70;;;;;;;-6.26;49.84;101680.13;1754199;81;25781;-53
2021/01/18 10:19:42;;;;;;;35.03;15.63;;;;;;;-6.19;49.53;101674.44;1785025;80;25742;-54
2021/01/18 10:22:19;;;;;;;41.23;14.85;;;;;;;-6.04;50.50;101680.91;1754300;81;25709;-53
2021/01/18 10:24:56;;;;;;;40.25;15.32;;;;;;;-5.94;50.84;101676.89;1784896;80;27471;-53
2021/01/18 10:27:28;;;;;;;38.73;14.00;;;;;;;-5.92;50.44;101681.70;1753967;81;25700;-54
2021/01/18 10:30:11;;;;;;;29.87;12.07;;;;;;;-5.99;50.15;101676.50;1785184;80;26331;-55
2021/01/18 10:32:46;;;;;;;35.58;13.90;;;;;;;-6.11;49.44;101683.12;1753826;81;25861;-53
2021/01/18 10:35:29;;;;;;;32.83;13.65;;;;;;;-6.23;50.65;101684.06;1785152;80;26228;-55
2021/01/18 10:38:19;;;;;;;32.63;14.28;;;;;;;-6.30;50.30;101684.97;1767932;81;27705;-53
2021/01/18 10:41:06;;;;;;;50.03;19.05;;;;;;;-6.46;50.54;101685.03;1770000;79;25648;-54
2021/01/18 10:43:37;;;;;;;37.93;15.25;;;;;;;-6.62;51.29;101688.13;1769435;79;25746;-53
2021/01/18 10:46:13;;;;;;;36.60;14.90;;;;;;;-6.64;51.62;101690.32;1776055;78;25979;-54
2021/01/18 10:48:43;;;;;;;34.63;14.60;;;;;;;-6.62;51.90;101683.31;1767918;81;25725;-54
2021/01/18 10:51:11;;;;;;;44.95;12.60;;;;;;;-6.53;51.81;101685.91;1768011;80;27584;-54
2021/01/18 10:53:39;;;;;;;42.80;18.07;;;;;;;-6.39;51.88;101684.55;1767749;80;25617;-52
2021/01/18 10:56:14;;;;;;;48.42;18.52;;;;;;;-6.34;52.11;101678.88;1764975;81;25501;-53
2021/01/18 10:58:48;;;;;;;45.35;18.02;;;;;;;-6.27;52.09;101682.32;1768072;81;26526;-54
2021/01/18 11:01:17;;;;;;;39.23;16.02;;;;;;;-6.25;51.75;101683.19;1767166;81;25617;-53
2021/01/18 11:03:46;;;;;;;49.73;17.37;;;;;;;-6.33;51.51;101674.50;1768191;81;27724;-53
2021/01/18 11:06:20;;;;;;;40.17;16.82;;;;;;;-6.52;50.76;101672.39;1768255;80;26168;-54
2021/01/18 11:08:53;;;;;;;41.40;17.60;;;;;;;-6.70;51.88;101672.88;1773742;79;25695;-52
2021/01/18 11:11:27;;;;;;;43.95;16.37;;;;;;;-6.63;52.57;101668.06;1755861;81;26396;-53
2021/01/18 11:14:06;;;;;;;44.95;17.30;;;;;;;-6.56;53.33;101668.92;1767927;81;26699;-51
2021/01/18 11:16:34;;;;;;;44.40;17.15;;;;;;;-6.53;53.57;101670.20;1764153;81;27759;-51
2021/01/18 11:19:06;;;;;;;40.52;16.85;;;;;;;-6.50;53.36;101665.41;1759044;81;25735;-53
2021/01/18 11:21:35;;;;;;;38.70;13.88;;;;;;;-6.54;52.89;101663.67;1739687;81;25493;-52
2021/01/18 11:24:05;;;;;;;39.83;14.47;;;;;;;-6.57;53.11;101665.86;1746179;81;25699;-52
2021/01/18 11:26:33;;;;;;;38.90;15.43;;;;;;;-6.51;53.67;101668.91;1766069;81;26145;-53
2021/01/18 11:29:02;;;;;;;39.55;17.45;;;;;;;-6.49;53.97;101665.40;1763984;81;27463;-52
2021/01/18 11:31:30;;;;;;;29.32;12.55;;;;;;;-6.46;54.17;101668.44;1768200;80;26317;-53
2021/01/18 11:34:00;;;;;;;37.08;16.12;;;;;;;-6.44;53.58;101664.07;1759615;81;25519;-51
2021/01/18 11:36:28;;;;;;;46.00;20.00;;;;;;;-6.56;54.09;101668.92;1753882;81;25595;-53
2021/01/18 11:38:56;;;;;;;39.83;15.45;;;;;;;-6.63;54.25;101665.44;1753245;81;25592;-52
2021/01/18 11:41:26;;;;;;;41.63;17.95;;;;;;;-6.68;54.32;101670.25;1753319;80;27681;-55
2021/01/18 11:43:55;;;;;;;44.88;19.05;;;;;;;-6.73;54.43;101667.64;1766964;80;25654;-54